Time;durP1;ratioP1;P1;durP2;ratioP2;P2;SDS_P1;SDS_P2;PMS_P1;PMS_P2;Temp;Humidity;BMP_temperature;BMP_pressure;BME280_temperature;BME280_humidity;BME280_pressure;Samples;Min_cycle;Max_cycle;Signal;HPM_P1;HPM_P2
2020/12/14 00:01:58;;;;;;;6.27;2.40;;;7.50;75.90;;;;;;5132659;27;20035;-77
2020/12/14 00:04:24;;;;;;;7.97;2.43;;;7.40;76.00;;;;;;5115879;27;20075;-78
2020/12/14 00:06:50;;;;;;;7.40;1.90;;;7.50;76.10;;;;;;5094679;28;20081;-77
2020/12/14 00:09:17;;;;;;;7.10;1.53;;;7.50;76.20;;;;;;5100369;27;20412;-77
2020/12/14 00:11:42;;;;;;;9.13;2.43;;;7.50;76.00;;;;;;5133998;27;20080;-78
2020/12/14 00:14:08;;;;;;;10.33;1.80;;;7.60;76.10;;;;;;5114528;27;20027;-76
2020/12/14 00:16:34;;;;;;;6.37;1.20;;;7.60;75.80;;;;;;5115063;27;20030;-77
2020/12/14 00:18:59;;;;;;;10.70;4.60;;;7.60;75.80;;;;;;5114589;27;20035;-78
2020/12/14 00:21:25;;;;;;;9.30;2.10;;;7.60;75.70;;;;;;5146205;27;20039;-77
2020/12/14 00:23:51;;;;;;;6.40;1.90;;;7.60;75.90;;;;;;5135898;27;20114;-76
2020/12/14 00:26:19;;;;;;;8.20;1.40;;;7.60;75.50;;;;;;5137799;27;20027;-77
2020/12/14 00:28:48;;;;;;;9.07;1.83;;;7.70;75.60;;;;;;5119492;27;20035;-77
2020/12/14 00:31:15;;;;;;;8.57;1.50;;;7.70;75.60;;;;;;5130952;27;20024;-78
2020/12/14 00:33:40;;;;;;;6.17;1.60;;;7.70;75.70;;;;;;5103457;27;20027;-77
2020/12/14 00:36:08;;;;;;;11.20;2.00;;;7.70;75.60;;;;;;5084542;28;20100;-76
2020/12/14 00:38:34;;;;;;;8.43;1.63;;;7.70;75.70;;;;;;5102788;27;20027;-77
2020/12/14 00:40:59;;;;;;;3.90;1.37;;;7.70;75.70;;;;;;5102913;27;20030;-78
2020/12/14 00:43:25;;;;;;;8.33;1.27;;;7.70;75.80;;;;;;5116572;27;20120;-76
2020/12/14 00:45:50;;;;;;;7.47;1.30;;;7.60;75.70;;;;;;5112789;27;20031;-76
2020/12/14 00:48:16;;;;;;;6.87;1.37;;;7.60;75.90;;;;;;5098730;27;20024;-77
2020/12/14 00:50:41;;;;;;;9.43;1.50;;;7.70;75.80;;;;;;5112687;27;20051;-77
2020/12/14 00:53:07;;;;;;;4.43;1.37;;;7.70;75.70;;;;;;5133294;27;20027;-76
2020/12/14 00:55:32;;;;;;;4.87;1.50;;;7.80;75.70;;;;;;5094482;28;20032;-77
2020/12/14 00:57:58;;;;;;;5.83;1.53;;;7.70;75.80;;;;;;5094869;28;20051;-77
2020/12/14 01:00:24;;;;;;;8.10;1.37;;;7.80;75.70;;;;;;5128744;27;20030;-76
2020/12/14 01:02:49;;;;;;;5.40;1.17;;;7.70;75.80;;;;;;5098019;27;20047;-77
2020/12/14 01:05:15;;;;;;;7.80;1.43;;;7.80;75.90;;;;;;5132711;27;20050;-77
2020/12/14 01:07:40;;;;;;;6.53;1.83;;;7.80;75.80;;;;;;5097853;27;20041;-77
2020/12/14 01:10:06;;;;;;;8.30;1.20;;;7.80;75.90;;;;;;5076439;28;20408;-76
2020/12/14 01:12:32;;;;;;;6.90;1.40;;;7.80;75.80;;;;;;5130212;27;20071;-77
2020/12/14 01:14:57;;;;;;;6.57;1.27;;;7.90;75.70;;;;;;5091901;28;20031;-77
2020/12/14 01:17:23;;;;;;;4.63;0.90;;;7.90;75.80;;;;;;5095436;28;20077;-78
2020/12/14 01:19:48;;;;;;;5.73;1.10;;;7.90;75.80;;;;;;5107238;27;20023;-76
2020/12/14 01:22:14;;;;;;;7.97;1.53;;;7.90;75.80;;;;;;5133420;27;20110;-77
2020/12/14 01:24:40;;;;;;;3.23;1.23;;;7.90;75.80;;;;;;5114114;27;20120;-77
2020/12/14 01:27:05;;;;;;;3.93;0.90;;;8.00;75.70;;;;;;5114436;27;20023;-78
2020/12/14 01:29:31;;;;;;;5.37;1.37;;;8.00;75.90;;;;;;5132309;27;20098;-77
2020/12/14 01:31:56;;;;;;;5.73;1.20;;;8.00;75.70;;;;;;5112764;27;20110;-76
2020/12/14 01:34:22;;;;;;;6.47;1.43;;;8.10;75.80;;;;;;5081131;27;20020;-76
2020/12/14 01:36:49;;;;;;;6.97;1.10;;;8.00;75.80;;;;;;5080805;27;20030;-77
2020/12/14 01:39:15;;;;;;;3.63;1.07;;;8.10;76.00;;;;;;5096453;27;20027;-77
2020/12/14 01:41:41;;;;;;;3.77;1.00;;;8.10;76.00;;;;;;5131498;27;20047;-77
2020/12/14 01:44:07;;;;;;;8.13;1.03;;;8.10;76.00;;;;;;5131558;27;20050;-77
2020/12/14 01:46:33;;;;;;;5.17;1.20;;;8.10;76.00;;;;;;5113759;27;20035;-77
2020/12/14 01:49:00;;;;;;;4.37;0.90;;;8.10;76.10;;;;;;5131342;27;20106;-77
2020/12/14 01:51:32;;;;;;;3.63;1.07;;;8.20;76.30;;;;;;5114575;27;20456;-76
2020/12/14 01:53:59;;;;;;;6.33;1.13;;;8.20;76.40;;;;;;5105096;27;20051;-76
2020/12/14 01:56:26;;;;;;;3.90;1.10;;;8.20;76.40;;;;;;5115607;27;20028;-77
2020/12/14 01:58:51;;;;;;;4.00;0.97;;;8.20;76.50;;;;;;5130638;27;20028;-76
2020/12/14 02:01:17;;;;;;;4.20;0.80;;;8.20;76.40;;;;;;5114741;27;20383;-77
2020/12/14 02:03:43;;;;;;;3.90;0.60;;;8.30;76.70;;;;;;5112478;27;20031;-76
2020/12/14 02:06:08;;;;;;;6.67;0.90;;;8.30;76.60;;;;;;5095745;27;20509;-77
2020/12/14 02:08:34;;;;;;;3.70;0.90;;;8.40;76.80;;;;;;5095467;27;20114;-77
2020/12/14 02:11:00;;;;;;;4.93;0.80;;;8.40;76.80;;;;;;5094738;27;20432;-77
2020/12/14 02:13:30;;;;;;;4.30;1.00;;;8.40;76.80;;;;;;5097083;27;20072;-78
2020/12/14 02:15:56;;;;;;;2.40;0.70;;;8.40;76.70;;;;;;5110332;27;20027;-76
2020/12/14 02:18:22;;;;;;;3.20;0.83;;;8.50;76.90;;;;;;5112894;27;20034;-78
2020/12/14 02:20:49;;;;;;;6.47;0.83;;;8.50;77.00;;;;;;5113678;27;20035;-77
2020/12/14 02:23:15;;;;;;;1.83;0.60;;;8.50;76.80;;;;;;5095308;27;20031;-77
2020/12/14 02:25:40;;;;;;;5.13;1.13;;;8.50;76.80;;;;;;5131287;27;20031;-77
2020/12/14 02:28:06;;;;;;;3.83;0.70;;;8.60;77.00;;;;;;5112806;27;20031;-76
2020/12/14 02:30:31;;;;;;;4.17;0.70;;;8.60;77.10;;;;;;5077830;27;20015;-77
2020/12/14 02:32:57;;;;;;;4.70;0.90;;;8.60;77.00;;;;;;5095919;27;20438;-76
2020/12/14 02:35:23;;;;;;;2.63;0.70;;;8.60;77.20;;;;;;5112906;27;20039;-77
2020/12/14 02:37:48;;;;;;;6.27;0.80;;;8.60;77.20;;;;;;5113647;27;20019;-76
2020/12/14 02:40:14;;;;;;;4.87;0.70;;;8.60;77.20;;;;;;5110383;27;20076;-77
2020/12/14 02:42:39;;;;;;;3.93;0.90;;;8.60;77.40;;;;;;5112165;27;20165;-76
2020/12/14 02:45:05;;;;;;;3.10;0.50;;;8.60;77.40;;;;;;5112030;27;20049;-77
2020/12/14 02:47:31;;;;;;;3.73;0.77;;;8.60;77.40;;;;;;5113634;27;20475;-77
2020/12/14 02:49:56;;;;;;;2.30;0.60;;;8.60;77.50;;;;;;5109821;27;20483;-77
2020/12/14 02:52:22;;;;;;;2.37;0.73;;;8.60;77.60;;;;;;5131385;27;20394;-77
2020/12/14 02:54:47;;;;;;;3.47;0.50;;;8.60;77.70;;;;;;5112392;27;20035;-77
2020/12/14 02:57:13;;;;;;;1.97;0.53;;;8.60;77.60;;;;;;5111879;27;20079;-76
2020/12/14 02:59:39;;;;;;;2.47;0.50;;;8.60;77.80;;;;;;5112378;27;20031;-77
2020/12/14 03:02:06;;;;;;;3.00;0.50;;;8.60;77.90;;;;;;5111566;28;20035;-76
2020/12/14 03:04:32;;;;;;;6.97;0.90;;;8.60;78.00;;;;;;5127300;27;20479;-77
2020/12/14 03:06:58;;;;;;;2.50;0.60;;;8.60;78.00;;;;;;5130018;27;20043;-77
2020/12/14 03:09:24;;;;;;;1.63;0.50;;;8.60;78.20;;;;;;5112084;28;20056;-76
2020/12/14 03:11:51;;;;;;;3.10;0.70;;;8.60;78.30;;;;;;5112773;28;20518;-77
2020/12/14 03:14:17;;;;;;;5.00;0.60;;;8.60;78.20;;;;;;5128178;28;20236;-76
2020/12/14 03:16:48;;;;;;;2.97;0.50;;;8.60;78.20;;;;;;5113085;28;20019;-76
2020/12/14 03:19:14;;;;;;;3.33;0.70;;;8.70;78.30;;;;;;5111209;28;20023;-76
2020/12/14 03:21:40;;;;;;;2.93;0.63;;;8.70;78.40;;;;;;5113042;28;20478;-76
2020/12/14 03:24:06;;;;;;;3.60;0.80;;;8.70;78.30;;;;;;5109655;28;20085;-77
2020/12/14 03:26:32;;;;;;;1.70;0.50;;;8.70;78.30;;;;;;5113167;28;20023;-77
2020/12/14 03:28:58;;;;;;;3.03;0.50;;;8.70;78.40;;;;;;5111652;28;20027;-76
2020/12/14 03:31:24;;;;;;;4.10;0.53;;;8.70;78.40;;;;;;5112398;28;20523;-76
2020/12/14 03:33:51;;;;;;;3.47;0.80;;;8.70;78.50;;;;;;5129810;28;20031;-76
2020/12/14 03:36:20;;;;;;;2.37;0.50;;;8.70;78.50;;;;;;5092789;28;20024;-77
2020/12/14 03:38:46;;;;;;;1.97;0.70;;;8.70;78.50;;;;;;5094206;28;20027;-76
2020/12/14 03:41:12;;;;;;;3.87;0.87;;;8.70;78.60;;;;;;5093664;28;20478;-76
2020/12/14 03:43:38;;;;;;;1.77;0.50;;;8.70;78.60;;;;;;5092359;28;20096;-76
2020/12/14 03:46:03;;;;;;;3.33;0.90;;;8.70;78.60;;;;;;5110072;28;20043;-76
2020/12/14 03:48:29;;;;;;;2.13;0.70;;;8.70;78.80;;;;;;5112649;28;20031;-76
2020/12/14 03:50:54;;;;;;;1.63;0.40;;;8.70;78.80;;;;;;5078873;28;20031;-76
2020/12/14 03:53:20;;;;;;;1.90;0.60;;;8.70;79.00;;;;;;5097070;28;20024;-76
2020/12/14 03:55:50;;;;;;;2.60;0.67;;;8.80;79.10;;;;;;5095625;28;20027;-77
2020/12/14 03:58:16;;;;;;;2.20;0.60;;;8.80;79.20;;;;;;5112212;28;20023;-77
2020/12/14 04:00:45;;;;;;;2.57;0.70;;;8.70;79.50;;;;;;5112935;28;20023;-77
2020/12/14 04:03:10;;;;;;;2.53;0.60;;;8.70;79.80;;;;;;5110567;28;20380;-77
2020/12/14 04:05:37;;;;;;;2.60;0.80;;;8.60;79.90;;;;;;5078757;28;20046;-77
2020/12/14 04:08:03;;;;;;;4.53;0.80;;;8.60;80.00;;;;;;5079007;27;20035;-77
2020/12/14 04:10:29;;;;;;;3.70;0.77;;;8.60;80.00;;;;;;5113952;27;20019;-76
2020/12/14 04:12:55;;;;;;;5.17;0.93;;;8.70;80.00;;;;;;5114565;27;20126;-75
2020/12/14 04:15:20;;;;;;;3.77;0.70;;;8.70;79.90;;;;;;5115696;27;20483;-76
2020/12/14 04:17:46;;;;;;;2.80;1.00;;;8.70;80.00;;;;;;5099776;27;20035;-76
2020/12/14 04:20:12;;;;;;;2.27;0.73;;;8.60;80.20;;;;;;5132857;27;20039;-76
2020/12/14 04:22:37;;;;;;;3.33;0.77;;;8.60;80.30;;;;;;5099373;27;20432;-77
2020/12/14 04:25:03;;;;;;;2.70;0.70;;;8.60;80.50;;;;;;5079628;28;20036;-76
2020/12/14 04:27:29;;;;;;;4.80;0.80;;;8.60;80.50;;;;;;5127021;27;20023;-76
2020/12/14 04:29:55;;;;;;;2.93;0.73;;;8.60;80.70;;;;;;5133381;27;20084;-77
2020/12/14 04:32:20;;;;;;;2.80;0.90;;;8.50;80.80;;;;;;5115234;27;20151;-77
2020/12/14 04:34:46;;;;;;;2.53;0.73;;;8.50;81.00;;;;;;5096960;27;20027;-77
2020/12/14 04:37:11;;;;;;;3.10;0.63;;;8.50;81.30;;;;;;5133687;27;20024;-77
2020/12/14 04:39:37;;;;;;;3.60;0.90;;;8.40;81.60;;;;;;5114820;27;20458;-77
2020/12/14 04:42:03;;;;;;;2.17;0.70;;;8.40;81.80;;;;;;5096761;27;20107;-76
2020/12/14 04:44:30;;;;;;;2.50;0.80;;;8.40;81.80;;;;;;5115034;27;20134;-77
2020/12/14 04:46:56;;;;;;;2.80;1.00;;;8.40;82.00;;;;;;5095770;28;20019;-76
2020/12/14 04:49:22;;;;;;;3.03;1.00;;;8.40;82.10;;;;;;5112877;28;20036;-76
2020/12/14 04:51:48;;;;;;;2.07;1.03;;;8.40;82.50;;;;;;5133320;27;20106;-77
2020/12/14 04:54:16;;;;;;;3.53;1.00;;;8.40;82.70;;;;;;5097190;27;20027;-77
2020/12/14 04:56:42;;;;;;;2.77;1.30;;;8.40;83.00;;;;;;5115703;27;20054;-77
2020/12/14 04:59:08;;;;;;;2.30;1.23;;;8.30;83.20;;;;;;5132199;27;20422;-77
2020/12/14 05:01:35;;;;;;;3.00;1.07;;;8.30;83.50;;;;;;5114076;27;20031;-78
2020/12/14 05:04:02;;;;;;;3.73;1.30;;;8.20;83.60;;;;;;5130869;27;20407;-77
2020/12/14 05:06:28;;;;;;;2.53;1.07;;;8.20;83.70;;;;;;5115178;27;20103;-77
2020/12/14 05:08:53;;;;;;;3.60;1.00;;;8.20;83.80;;;;;;5133090;27;20031;-77
2020/12/14 05:11:35;;;;;;;3.20;1.13;;;8.20;83.80;;;;;;5113754;27;20486;-77
2020/12/14 05:14:21;;;;;;;3.60;1.10;;;8.30;83.70;;;;;;5094694;28;20408;-77
2020/12/14 05:16:48;;;;;;;3.73;0.80;;;8.30;83.50;;;;;;5111232;27;20035;-78
2020/12/14 05:19:24;;;;;;;2.37;0.80;;;8.30;83.20;;;;;;5112513;28;20054;-78
2020/12/14 05:21:51;;;;;;;2.63;0.97;;;8.40;83.20;;;;;;5115291;27;20027;-76
2020/12/14 05:24:27;;;;;;;3.00;1.20;;;8.40;82.90;;;;;;5131364;27;20090;-78
2020/12/14 05:26:54;;;;;;;3.67;0.93;;;8.40;82.90;;;;;;5098161;27;20462;-78
2020/12/14 05:29:28;;;;;;;2.07;1.00;;;8.50;82.70;;;;;;5113268;27;20030;-77
2020/12/14 05:32:12;;;;;;;4.53;1.40;;;8.50;83.30;;;;;;5115057;27;20105;-78
2020/12/14 05:34:41;;;;;;;2.00;1.07;;;8.50;82.70;;;;;;5114026;27;20027;-78
2020/12/14 05:37:08;;;;;;;3.87;1.47;;;8.60;82.70;;;;;;5114258;27;20193;-77
2020/12/14 05:39:37;;;;;;;4.53;1.30;;;8.60;82.60;;;;;;5131754;27;20076;-78
2020/12/14 05:42:09;;;;;;;2.33;1.10;;;8.60;82.50;;;;;;5112267;27;20023;-78
2020/12/14 05:44:35;;;;;;;3.03;1.00;;;8.60;82.60;;;;;;5114430;27;20020;-77
2020/12/14 05:47:01;;;;;;;3.43;1.10;;;8.60;82.50;;;;;;5094694;28;20050;-77
2020/12/14 05:49:26;;;;;;;3.00;1.10;;;8.60;82.50;;;;;;5112204;27;20202;-77
2020/12/14 05:52:02;;;;;;;3.40;0.80;;;8.60;82.40;;;;;;5082346;28;20463;-77
2020/12/14 05:54:54;;;;;;;2.63;1.10;;;8.70;82.40;;;;;;5117999;27;20086;-77
2020/12/14 05:57:28;;;;;;;2.77;0.83;;;8.70;82.50;;;;;;5124593;27;20433;-77
2020/12/14 05:59:58;;;;;;;3.23;1.07;;;8.60;82.50;;;;;;5133115;27;20455;-77
2020/12/14 06:02:26;;;;;;;2.37;1.03;;;8.70;82.60;;;;;;5094897;27;21026;-77
2020/12/14 06:04:55;;;;;;;2.87;1.37;;;8.70;82.60;;;;;;5097324;27;20517;-78
2020/12/14 06:07:24;;;;;;;2.60;0.90;;;8.70;82.70;;;;;;5112726;27;20022;-78
2020/12/14 06:10:04;;;;;;;2.67;1.07;;;8.70;82.70;;;;;;5125557;27;20046;-78
2020/12/14 06:12:31;;;;;;;2.73;0.80;;;8.70;82.80;;;;;;5130592;27;20027;-77
2020/12/14 06:15:16;;;;;;;2.47;1.27;;;8.70;83.30;;;;;;5113237;27;20054;-79
2020/12/14 06:17:45;;;;;;;2.50;1.10;;;8.70;83.80;;;;;;5111438;27;20031;-78
2020/12/14 06:20:23;;;;;;;3.17;1.13;;;8.60;84.10;;;;;;5112129;27;20023;-80
2020/12/14 06:23:04;;;;;;;2.37;1.37;;;8.60;84.90;;;;;;5129618;27;20042;-81
2020/12/14 06:25:30;;;;;;;3.70;1.70;;;8.50;85.40;;;;;;5112041;28;20063;-82
2020/12/14 06:27:56;;;;;;;2.43;1.70;;;8.40;86.20;;;;;;5114766;27;20068;-80
2020/12/14 06:30:30;;;;;;;4.33;2.00;;;8.40;86.70;;;;;;5094383;28;20036;-82
2020/12/14 06:33:12;;;;;;;4.57;2.23;;;8.30;87.10;;;;;;5098534;27;20120;-77
2020/12/14 06:35:41;;;;;;;4.30;2.50;;;8.30;87.70;;;;;;5130642;27;20027;-80
2020/12/14 06:38:06;;;;;;;4.00;2.90;;;8.30;88.20;;;;;;5113858;27;20062;-77
2020/12/14 06:40:58;;;;;;;5.30;3.30;;;8.30;88.50;;;;;;5112683;27;20061;-78
2020/12/14 06:43:29;;;;;;;3.37;2.67;;;8.30;89.20;;;;;;5112713;27;20114;-80
2020/12/14 06:45:56;;;;;;;4.73;3.43;;;8.30;89.40;;;;;;5112327;27;20534;-81
2020/12/14 06:48:45;;;;;;;6.77;3.50;;;8.30;89.60;;;;;;5104669;28;20054;-79
2020/12/14 06:51:16;;;;;;;4.47;3.20;;;8.30;89.80;;;;;;5125420;27;20031;-78
2020/12/14 06:53:50;;;;;;;4.60;3.77;;;8.20;89.90;;;;;;5112059;27;20035;-81
2020/12/14 06:56:27;;;;;;;4.80;3.70;;;8.20;90.00;;;;;;5112536;27;20106;-81
2020/12/14 06:58:56;;;;;;;4.27;3.07;;;8.30;90.10;;;;;;5112345;27;20023;-79
2020/12/14 07:01:39;;;;;;;6.93;4.23;;;8.20;90.10;;;;;;5113744;27;20065;-80
2020/12/14 07:04:11;;;;;;;3.63;3.30;;;8.30;90.30;;;;;;5113343;28;20046;-79
2020/12/14 07:06:37;;;;;;;4.63;3.73;;;8.30;90.30;;;;;;5123748;27;20103;-80
2020/12/14 07:09:26;;;;;;;6.43;3.90;;;8.30;90.30;;;;;;5105517;27;20481;-79
2020/12/14 07:11:52;;;;;;;5.07;3.67;;;8.30;90.40;;;;;;5109348;27;20347;-80
2020/12/14 07:14:30;;;;;;;7.43;4.33;;;8.40;90.40;;;;;;5113734;28;20030;-78
2020/12/14 07:17:02;;;;;;;3.97;3.60;;;8.40;90.50;;;;;;5110307;28;20066;-79
2020/12/14 07:19:37;;;;;;;5.57;4.03;;;8.40;90.50;;;;;;5107129;28;20027;-79
2020/12/14 07:22:03;;;;;;;3.77;3.37;;;8.40;90.50;;;;;;5120336;28;20044;-78
2020/12/14 07:24:35;;;;;;;5.10;3.87;;;8.50;90.60;;;;;;5103969;28;20456;-78
2020/12/14 07:27:01;;;;;;;4.80;3.30;;;8.50;90.60;;;;;;5111295;28;20027;-75
2020/12/14 07:29:27;;;;;;;4.47;4.07;;;8.50;90.60;;;;;;5092470;28;20036;-79
2020/12/14 07:31:53;;;;;;;9.20;4.30;;;8.50;90.70;;;;;;5104522;28;20731;-77
2020/12/14 07:34:19;;;;;;;4.43;3.87;;;8.50;90.80;;;;;;5098687;28;20037;-79
2020/12/14 07:36:44;;;;;;;5.43;3.90;;;8.60;90.90;;;;;;5084212;28;20035;-79
2020/12/14 07:39:10;;;;;;;7.70;4.70;;;8.60;90.90;;;;;;5090520;28;20360;-79
2020/12/14 07:41:36;;;;;;;7.83;5.33;;;8.60;90.90;;;;;;5091119;28;20375;-79
2020/12/14 07:44:04;;;;;;;6.20;5.57;;;8.60;91.00;;;;;;5084985;27;20405;-78
2020/12/14 07:46:34;;;;;;;8.23;6.40;;;8.60;91.10;;;;;;5132593;27;20035;-77
2020/12/14 07:49:00;;;;;;;10.03;7.20;;;8.60;91.20;;;;;;5118058;27;20030;-78
2020/12/14 07:51:27;;;;;;;8.73;7.27;;;8.70;91.20;;;;;;5132397;27;20031;-78
2020/12/14 07:54:01;;;;;;;9.30;7.10;;;8.60;91.40;;;;;;5113509;27;20016;-78
2020/12/14 07:56:27;;;;;;;9.93;8.17;;;8.60;91.40;;;;;;5115940;27;20063;-79
2020/12/14 07:58:52;;;;;;;9.13;7.43;;;8.60;91.50;;;;;;5123112;27;20501;-79
2020/12/14 08:01:19;;;;;;;9.67;7.00;;;8.70;91.60;;;;;;5092616;27;20474;-78
2020/12/14 08:03:45;;;;;;;9.43;7.60;;;8.70;91.60;;;;;;5092385;27;20031;-78
2020/12/14 08:06:11;;;;;;;11.23;8.13;;;8.80;91.70;;;;;;5091391;27;20497;-79
2020/12/14 08:08:39;;;;;;;11.67;7.97;;;8.80;91.70;;;;;;5134429;27;20027;-78
2020/12/14 08:11:05;;;;;;;10.70;7.70;;;8.80;91.80;;;;;;5118838;27;20044;-79
2020/12/14 08:13:31;;;;;;;11.93;7.97;;;8.90;91.90;;;;;;5124022;27;20060;-78
2020/12/14 08:16:02;;;;;;;11.87;9.70;;;8.90;92.00;;;;;;5139005;27;20023;-80
2020/12/14 08:18:28;;;;;;;12.80;9.53;;;8.90;92.00;;;;;;5124732;27;20035;-79
2020/12/14 08:20:56;;;;;;;8.73;7.53;;;9.00;92.10;;;;;;5091645;27;20065;-80
2020/12/14 08:23:23;;;;;;;9.73;7.90;;;9.00;92.10;;;;;;5111397;27;20088;-80
2020/12/14 08:25:51;;;;;;;10.77;8.63;;;9.00;92.20;;;;;;5113585;27;20027;-79
2020/12/14 08:28:36;;;;;;;15.47;9.50;;;9.00;92.20;;;;;;5131943;27;20019;-79
2020/12/14 08:31:05;;;;;;;11.00;9.17;;;9.10;92.20;;;;;;5113339;27;20053;-78
2020/12/14 08:33:31;;;;;;;13.87;9.17;;;9.10;92.30;;;;;;5108784;27;20058;-79
2020/12/14 08:35:57;;;;;;;13.80;9.43;;;9.10;92.30;;;;;;5129112;27;20562;-79
2020/12/14 08:38:24;;;;;;;11.90;8.93;;;9.10;92.30;;;;;;5115006;27;20023;-79
2020/12/14 08:41:02;;;;;;;15.50;9.83;;;9.20;92.30;;;;;;5108961;27;20015;-78
2020/12/14 08:43:30;;;;;;;13.90;9.60;;;9.20;92.30;;;;;;5129559;27;20058;-78
2020/12/14 08:46:10;;;;;;;10.20;8.23;;;9.20;92.30;;;;;;5125446;27;20097;-78
2020/12/14 08:48:56;;;;;;;12.83;9.47;;;9.20;92.40;;;;;;5096385;27;20039;-78
2020/12/14 08:51:33;;;;;;;12.87;8.10;;;9.20;92.40;;;;;;5091767;27;20028;-77
2020/12/14 08:54:12;;;;;;;11.57;7.43;;;9.20;92.40;;;;;;5107442;28;20016;-78
2020/12/14 08:56:39;;;;;;;12.50;8.53;;;9.30;92.40;;;;;;5104763;27;20089;-78
2020/12/14 08:59:04;;;;;;;9.67;6.73;;;9.30;92.40;;;;;;5107092;27;20037;-77
2020/12/14 09:01:32;;;;;;;11.53;6.87;;;9.30;92.50;;;;;;5111744;27;20019;-78
2020/12/14 09:04:02;;;;;;;9.17;5.10;;;9.40;92.50;;;;;;5102716;27;20656;-77
2020/12/14 09:06:31;;;;;;;6.43;5.00;;;9.40;92.50;;;;;;5106803;27;20470;-77
2020/12/14 09:09:00;;;;;;;5.77;4.17;;;9.50;92.50;;;;;;5115171;27;20050;-77
2020/12/14 09:11:28;;;;;;;10.23;5.47;;;9.50;92.50;;;;;;5115056;27;20108;-77
2020/12/14 09:13:55;;;;;;;5.73;3.40;;;9.50;92.50;;;;;;5114938;27;20069;-78
2020/12/14 09:16:21;;;;;;;9.77;5.07;;;9.60;92.50;;;;;;5132527;27;20031;-77
2020/12/14 09:18:47;;;;;;;7.33;3.30;;;9.60;92.50;;;;;;5113254;27;20059;-78
2020/12/14 09:21:12;;;;;;;3.53;2.67;;;9.60;92.50;;;;;;5098460;27;20061;-80
2020/12/14 09:23:38;;;;;;;2.10;1.40;;;9.70;92.50;;;;;;5133020;27;20035;-78
2020/12/14 09:26:05;;;;;;;3.60;3.27;;;9.70;92.50;;;;;;5081116;27;20024;-78
2020/12/14 09:28:34;;;;;;;5.97;5.13;;;9.70;92.40;;;;;;5128967;27;20127;-78
2020/12/14 09:31:00;;;;;;;6.27;3.63;;;9.80;92.50;;;;;;5132757;27;20125;-79
2020/12/14 09:33:26;;;;;;;5.97;4.70;;;9.80;92.40;;;;;;5128813;27;20044;-78
2020/12/14 09:35:52;;;;;;;6.33;5.57;;;9.90;92.40;;;;;;5105946;27;20087;-79
2020/12/14 09:38:18;;;;;;;5.00;3.60;;;9.90;92.30;;;;;;5091152;27;20504;-79
2020/12/14 09:40:43;;;;;;;2.60;2.40;;;10.00;92.30;;;;;;5073777;27;20023;-79
2020/12/14 09:43:09;;;;;;;1.40;1.00;;;10.00;92.30;;;;;;5115822;27;20050;-79
2020/12/14 09:45:34;;;;;;;5.53;3.67;;;10.00;92.20;;;;;;5091052;27;20038;-79
2020/12/14 09:48:00;;;;;;;6.10;4.00;;;10.10;92.20;;;;;;5094734;27;20038;-79
2020/12/14 09:50:27;;;;;;;4.70;1.77;;;10.10;92.20;;;;;;5129471;27;20030;-79
2020/12/14 09:52:52;;;;;;;3.53;2.47;;;10.20;92.10;;;;;;5095610;27;20028;-79
2020/12/14 09:55:18;;;;;;;4.93;3.87;;;10.20;92.10;;;;;;5093395;27;20025;-79
2020/12/14 09:57:44;;;;;;;3.90;2.87;;;10.30;92.00;;;;;;5110477;27;20092;-79
2020/12/14 10:00:10;;;;;;;9.40;5.83;;;10.40;91.90;;;;;;5114317;27;20038;-79
2020/12/14 10:02:35;;;;;;;4.27;2.80;;;10.40;91.80;;;;;;5091282;27;20126;-78
2020/12/14 10:05:01;;;;;;;3.63;2.37;;;10.50;91.80;;;;;;5112303;27;20154;-79
2020/12/14 10:07:26;;;;;;;2.33;2.00;;;10.50;91.60;;;;;;5096502;27;20034;-79
2020/12/14 10:09:52;;;;;;;6.83;3.23;;;10.50;91.40;;;;;;5096993;27;20059;-79
2020/12/14 10:12:18;;;;;;;7.30;4.20;;;10.50;91.40;;;;;;5078850;27;20031;-80
2020/12/14 10:14:43;;;;;;;3.43;1.93;;;10.60;91.40;;;;;;5131589;27;20028;-79
2020/12/14 10:17:09;;;;;;;5.40;3.40;;;10.60;91.40;;;;;;5079664;27;20031;-79
2020/12/14 10:19:35;;;;;;;7.63;4.30;;;10.60;91.30;;;;;;5095860;27;20436;-79
2020/12/14 10:22:01;;;;;;;4.13;2.83;;;10.70;91.30;;;;;;5109596;27;20035;-79
2020/12/14 10:24:26;;;;;;;5.13;1.80;;;10.70;91.10;;;;;;5102288;27;20054;-78
2020/12/14 10:26:52;;;;;;;3.40;1.90;;;10.70;91.00;;;;;;5105736;27;20050;-80
2020/12/14 10:29:18;;;;;;;4.23;2.10;;;10.70;91.00;;;;;;5086761;27;20062;-79
2020/12/14 10:31:44;;;;;;;5.63;3.23;;;10.80;90.90;;;;;;5104725;27;20115;-79
2020/12/14 10:34:11;;;;;;;2.93;2.20;;;10.80;90.90;;;;;;5103859;27;20072;-79
2020/12/14 10:36:37;;;;;;;3.67;2.40;;;10.90;90.90;;;;;;5121042;27;20097;-79
2020/12/14 10:39:03;;;;;;;2.20;1.27;;;10.90;90.80;;;;;;5087446;27;20027;-79
2020/12/14 10:41:28;;;;;;;7.20;4.17;;;10.90;91.20;;;;;;5105544;27;20049;-79
2020/12/14 10:43:54;;;;;;;1.57;0.90;;;11.10;90.80;;;;;;5085219;27;20031;-80
2020/12/14 10:46:25;;;;;;;8.80;5.70;;;11.10;90.30;;;;;;5111203;27;20027;-80
2020/12/14 10:48:50;;;;;;;5.03;3.20;;;11.20;90.40;;;;;;5129543;27;20273;-79
2020/12/14 10:51:16;;;;;;;3.00;2.13;;;11.10;90.40;;;;;;5096314;27;20470;-80
2020/12/14 10:53:41;;;;;;;6.87;4.83;;;11.10;90.40;;;;;;5079692;27;20249;-80
2020/12/14 10:56:07;;;;;;;7.67;2.50;;;11.10;90.40;;;;;;5103506;28;20074;-80
2020/12/14 10:58:33;;;;;;;8.20;4.63;;;11.10;90.40;;;;;;5089632;27;20023;-79
2020/12/14 11:00:58;;;;;;;4.40;3.43;;;11.10;90.30;;;;;;5093180;28;20027;-80
2020/12/14 11:03:25;;;;;;;5.80;3.50;;;11.10;90.40;;;;;;5097260;28;20028;-81
2020/12/14 11:05:55;;;;;;;3.67;2.40;;;11.10;90.40;;;;;;5096415;28;20051;-80
2020/12/14 11:08:21;;;;;;;5.53;3.70;;;11.10;90.40;;;;;;5112925;27;20028;-81
2020/12/14 11:10:48;;;;;;;3.67;2.10;;;11.30;90.60;;;;;;5126069;27;20167;-78
2020/12/14 11:13:13;;;;;;;3.50;2.63;;;11.60;90.60;;;;;;5109644;28;20042;-79
2020/12/14 11:15:39;;;;;;;4.30;2.47;;;11.80;90.10;;;;;;5094493;28;20027;-79
2020/12/14 11:18:05;;;;;;;5.67;4.30;;;11.70;89.10;;;;;;5113125;28;20386;-80
2020/12/14 11:20:31;;;;;;;3.50;1.73;;;11.70;89.20;;;;;;5108234;28;20032;-80
2020/12/14 11:22:56;;;;;;;4.03;2.20;;;11.60;88.60;;;;;;5090842;28;20039;-80
2020/12/14 11:25:22;;;;;;;5.50;2.37;;;11.60;88.80;;;;;;5125145;28;20478;-80
2020/12/14 11:27:48;;;;;;;5.73;3.80;;;11.60;89.00;;;;;;5119938;28;20031;-79
2020/12/14 11:30:13;;;;;;;3.53;2.13;;;11.70;89.40;;;;;;5102293;28;20035;-80
2020/12/14 11:32:39;;;;;;;4.23;2.40;;;11.90;89.60;;;;;;5103029;28;20084;-80
2020/12/14 11:35:05;;;;;;;3.23;1.50;;;12.10;88.80;;;;;;5105712;28;20062;-80
2020/12/14 11:37:30;;;;;;;4.13;2.83;;;12.20;88.10;;;;;;5102835;28;20398;-80
2020/12/14 11:39:56;;;;;;;9.47;6.40;;;12.30;88.50;;;;;;5090386;28;20023;-80
2020/12/14 11:42:22;;;;;;;6.33;4.53;;;12.50;88.60;;;;;;5092357;28;20566;-80
2020/12/14 11:44:49;;;;;;;7.50;5.27;;;12.70;88.30;;;;;;5106685;28;20019;-80
2020/12/14 11:47:15;;;;;;;3.43;2.27;;;12.80;88.10;;;;;;5087907;28;20027;-80
2020/12/14 11:49:40;;;;;;;6.00;4.17;;;12.80;86.80;;;;;;5100241;28;20036;-79
2020/12/14 11:52:07;;;;;;;6.37;3.53;;;13.00;86.60;;;;;;5110769;28;20034;-80
2020/12/14 11:54:33;;;;;;;4.90;3.80;;;13.00;85.50;;;;;;5124177;28;20024;-79
2020/12/14 11:56:59;;;;;;;9.05;6.03;;;13.00;84.40;;;;;;5102722;28;20168;-80
2020/12/14 11:59:25;;;;;;;3.47;1.77;;;13.10;84.90;;;;;;5106956;28;20355;-80
2020/12/14 12:01:53;;;;;;;2.63;1.50;;;13.30;84.90;;;;;;5089626;27;20049;-79
2020/12/14 12:04:19;;;;;;;4.20;2.10;;;13.40;83.50;;;;;;5104481;28;20029;-80
2020/12/14 12:06:45;;;;;;;8.30;4.85;;;13.40;83.30;;;;;;5102772;28;20032;-80
2020/12/14 12:09:10;;;;;;;3.10;1.87;;;13.30;83.40;;;;;;5103741;28;20136;-80
2020/12/14 12:11:36;;;;;;;5.07;3.10;;;13.30;82.90;;;;;;5084903;28;20111;-80
2020/12/14 12:14:02;;;;;;;6.80;4.03;;;13.30;82.50;;;;;;5106559;28;20028;-81
2020/12/14 12:16:28;;;;;;;6.67;4.33;;;13.40;82.50;;;;;;5095008;28;20545;-79
2020/12/14 12:18:53;;;;;;;4.28;2.92;;;13.50;82.20;;;;;;5103034;28;20080;-80
2020/12/14 12:21:19;;;;;;;3.78;2.70;;;13.60;82.10;;;;;;5117787;28;20100;-80
2020/12/14 12:23:45;;;;;;;6.82;4.32;;;13.60;81.70;;;;;;5123151;28;20038;-80
2020/12/14 12:26:11;;;;;;;8.48;5.28;;;13.70;82.50;;;;;;5108750;28;20118;-80
2020/12/14 12:28:37;;;;;;;6.85;4.78;;;13.70;81.30;;;;;;5110216;27;20035;-80
2020/12/14 12:31:03;;;;;;;4.43;2.67;;;13.70;81.20;;;;;;5116279;27;20037;-80
2020/12/14 12:33:28;;;;;;;8.13;5.65;;;13.70;80.60;;;;;;5114703;27;20027;-79
2020/12/14 12:35:54;;;;;;;5.85;4.55;;;13.70;81.30;;;;;;5092032;27;20023;-81
2020/12/14 12:38:19;;;;;;;4.05;1.83;;;13.60;80.90;;;;;;5107863;28;20031;-80
2020/12/14 12:40:45;;;;;;;7.40;4.28;;;13.40;80.10;;;;;;5097024;28;20035;-82
2020/12/14 12:43:11;;;;;;;5.20;2.72;;;13.30;81.30;;;;;;5095008;27;20088;-81
2020/12/14 12:45:36;;;;;;;4.93;2.83;;;13.30;81.70;;;;;;5108756;27;20042;-81
2020/12/14 12:48:02;;;;;;;3.10;1.60;;;13.20;80.90;;;;;;5097869;27;20035;-81
2020/12/14 12:50:29;;;;;;;6.35;4.03;;;13.10;81.00;;;;;;5114115;27;20473;-78
2020/12/14 12:52:55;;;;;;;4.53;2.20;;;13.10;81.50;;;;;;5129332;27;20122;-81
2020/12/14 12:55:20;;;;;;;5.15;2.83;;;13.10;81.50;;;;;;5105306;28;20107;-80